createdAt,value
2023-05-19T00:01:45.530Z,1.97
2023-05-19T00:04:15.087Z,1.90
2023-05-19T00:06:44.880Z,2.27
2023-05-19T00:09:13.809Z,2.20
2023-05-19T00:11:42.946Z,2.07
2023-05-19T00:14:11.941Z,1.73
2023-05-19T00:16:42.282Z,2.00
2023-05-19T00:19:11.381Z,1.80
2023-05-19T00:21:40.483Z,2.00
2023-05-19T00:24:09.177Z,2.47
2023-05-19T00:26:37.688Z,2.10
2023-05-19T00:29:06.537Z,2.33
2023-05-19T00:31:58.033Z,2.40
2023-05-19T00:34:26.584Z,2.23
2023-05-19T00:36:54.766Z,1.80
2023-05-19T00:39:24.705Z,2.10
2023-05-19T00:41:53.176Z,2.23
2023-05-19T00:44:21.329Z,2.40
2023-05-19T00:46:49.875Z,2.17
2023-05-19T00:49:18.069Z,2.50
2023-05-19T00:51:46.464Z,2.00
2023-05-19T00:54:15.004Z,2.43
2023-05-19T00:56:43.593Z,2.10
2023-05-19T00:59:12.154Z,2.20
2023-05-19T01:01:40.975Z,1.90
2023-05-19T01:04:10.696Z,2.10
2023-05-19T01:06:39.250Z,2.37
2023-05-19T01:09:07.734Z,2.73
2023-05-19T01:11:36.174Z,2.13
2023-05-19T01:14:04.320Z,2.60
2023-05-19T01:16:45.109Z,2.40
2023-05-19T01:19:51.176Z,2.50
2023-05-19T01:22:44.345Z,2.83
2023-05-19T01:26:07.082Z,2.60
2023-05-19T01:29:10.139Z,2.50
2023-05-19T01:31:40.095Z,2.40
2023-05-19T01:34:08.812Z,2.57
2023-05-19T01:36:38.489Z,2.50
2023-05-19T01:39:07.204Z,3.00
2023-05-19T01:41:36.323Z,2.10
2023-05-19T01:44:05.063Z,2.30
2023-05-19T01:46:33.727Z,2.10
2023-05-19T01:49:02.448Z,2.50
2023-05-19T01:51:31.471Z,2.80
2023-05-19T01:54:10.854Z,2.53
2023-05-19T01:56:54.077Z,2.10
2023-05-19T01:59:50.250Z,2.40
2023-05-19T02:02:49.529Z,2.90
2023-05-19T02:05:30.633Z,2.50
2023-05-19T02:08:15.974Z,2.70
2023-05-19T02:10:51.819Z,2.97
2023-05-19T02:13:25.154Z,2.30
2023-05-19T02:15:58.382Z,2.70
2023-05-19T02:18:29.965Z,2.40
2023-05-19T02:20:58.565Z,2.60
2023-05-19T02:23:27.242Z,2.73
2023-05-19T02:25:55.674Z,2.90
2023-05-19T02:28:27.760Z,2.80
2023-05-19T02:30:56.268Z,3.00
2023-05-19T02:33:27.518Z,2.50
2023-05-19T02:35:56.563Z,2.63
2023-05-19T02:38:25.193Z,2.87
2023-05-19T02:40:53.974Z,3.00
2023-05-19T02:43:22.457Z,2.50
2023-05-19T02:45:51.365Z,2.30
2023-05-19T02:48:21.478Z,3.33
2023-05-19T02:50:50.022Z,2.67
2023-05-19T02:53:18.718Z,2.63
2023-05-19T02:55:47.226Z,2.90
2023-05-19T02:58:15.679Z,2.30
2023-05-19T03:00:45.319Z,2.30
2023-05-19T03:03:15.025Z,3.13
2023-05-19T03:05:43.785Z,2.70
2023-05-19T03:08:12.330Z,2.43
2023-05-19T03:10:44.413Z,2.60
2023-05-19T03:13:12.641Z,2.50
2023-05-19T03:15:42.522Z,2.60
2023-05-19T03:18:12.048Z,2.60
2023-05-19T03:20:42.504Z,3.17
2023-05-19T03:23:10.982Z,2.60
2023-05-19T03:25:39.441Z,3.10
2023-05-19T03:28:07.502Z,2.80
2023-05-19T03:30:35.684Z,2.80
2023-05-19T03:33:05.623Z,2.93
2023-05-19T03:35:35.842Z,3.27
2023-05-19T03:38:04.251Z,3.40
2023-05-19T03:40:32.545Z,2.97
2023-05-19T03:43:01.525Z,3.40
2023-05-19T03:45:30.338Z,2.87
2023-05-19T03:48:00.968Z,2.70
2023-05-19T03:50:31.740Z,2.70
2023-05-19T03:53:00.922Z,3.30
2023-05-19T03:55:30.177Z,2.70
2023-05-19T03:57:58.662Z,2.93
2023-05-19T04:00:26.827Z,3.20
2023-05-19T04:02:55.406Z,3.30
2023-05-19T04:05:24.024Z,3.40
2023-05-19T04:07:52.523Z,3.00
2023-05-19T04:10:21.207Z,2.57
2023-05-19T04:12:49.839Z,2.70
2023-05-19T04:15:18.335Z,3.13
2023-05-19T04:17:47.582Z,3.30
2023-05-19T04:20:16.050Z,3.30
2023-05-19T04:22:44.566Z,3.50
2023-05-19T04:25:13.338Z,3.33
2023-05-19T04:27:42.574Z,2.90
2023-05-19T04:30:11.254Z,3.47
2023-05-19T04:32:41.464Z,3.23
2023-05-19T04:35:22.954Z,2.97
2023-05-19T04:37:54.307Z,2.80
2023-05-19T04:40:24.009Z,2.90
2023-05-19T04:42:54.247Z,2.93
2023-05-19T04:45:23.362Z,3.07
2023-05-19T04:47:52.787Z,3.03
2023-05-19T04:50:21.904Z,2.90
2023-05-19T04:52:50.373Z,3.27
2023-05-19T04:55:18.900Z,3.00
2023-05-19T04:57:47.030Z,2.90
2023-05-19T05:00:15.840Z,3.00
2023-05-19T05:02:44.441Z,2.97
2023-05-19T05:05:13.004Z,3.07
2023-05-19T05:07:41.461Z,2.93
2023-05-19T05:10:10.640Z,2.97
2023-05-19T05:12:39.417Z,3.53
2023-05-19T05:15:08.604Z,3.10
2023-05-19T05:17:37.841Z,2.60
2023-05-19T05:20:07.020Z,2.80
2023-05-19T05:22:36.108Z,2.50
2023-05-19T05:25:05.319Z,2.90
2023-05-19T05:27:33.992Z,2.70
2023-05-19T05:30:02.455Z,2.50
2023-05-19T05:32:30.694Z,3.00
2023-05-19T05:34:59.375Z,2.30
2023-05-19T05:37:27.465Z,3.30
2023-05-19T05:39:56.075Z,3.40
2023-05-19T05:42:24.547Z,2.80
2023-05-19T05:44:53.050Z,2.97
2023-05-19T05:47:21.458Z,2.53
2023-05-19T05:49:52.114Z,2.87
2023-05-19T05:52:23.465Z,2.90
2023-05-19T05:54:51.885Z,2.50
2023-05-19T05:57:20.557Z,2.80
2023-05-19T05:59:49.320Z,2.90
2023-05-19T06:02:18.909Z,3.10
2023-05-19T06:04:47.439Z,3.00
2023-05-19T06:07:15.982Z,3.30
2023-05-19T06:09:44.137Z,2.90
2023-05-19T06:12:12.294Z,3.00
2023-05-19T06:14:40.761Z,3.23
2023-05-19T06:17:09.233Z,3.13
2023-05-19T06:19:37.413Z,2.60
2023-05-19T06:22:06.001Z,2.93
2023-05-19T06:24:34.482Z,2.50
2023-05-19T06:27:02.964Z,2.80
2023-05-19T06:29:31.443Z,2.90
2023-05-19T06:32:00.171Z,2.50
2023-05-19T06:34:28.683Z,2.53
2023-05-19T06:36:57.177Z,2.70
2023-05-19T06:39:26.313Z,2.67
2023-05-19T06:41:55.192Z,2.77
2023-05-19T06:44:24.249Z,2.93
2023-05-19T06:46:52.416Z,2.73
2023-05-19T06:49:21.036Z,2.80
2023-05-19T06:51:49.493Z,2.80
2023-05-19T06:54:17.943Z,2.77
2023-05-19T06:56:46.467Z,2.57
2023-05-19T06:59:16.288Z,3.57
2023-05-19T07:01:44.767Z,2.73
2023-05-19T07:04:13.390Z,2.90
2023-05-19T07:06:41.886Z,3.30
2023-05-19T07:09:10.494Z,2.70
2023-05-19T07:11:39.458Z,2.90
2023-05-19T07:14:07.962Z,2.53
2023-05-19T07:16:36.612Z,2.83
2023-05-19T07:19:05.233Z,2.70
2023-05-19T07:21:33.784Z,2.80
2023-05-19T07:24:02.238Z,2.77
2023-05-19T07:26:31.601Z,2.50
2023-05-19T07:29:00.201Z,2.90
2023-05-19T07:31:28.740Z,2.93
2023-05-19T07:33:57.927Z,2.47
2023-05-19T07:36:27.221Z,2.67
2023-05-19T07:38:56.216Z,2.50
2023-05-19T07:41:25.016Z,2.40
2023-05-19T07:43:53.675Z,2.73
2023-05-19T07:46:22.387Z,2.60
2023-05-19T07:48:51.148Z,2.47
2023-05-19T07:51:19.665Z,2.47
2023-05-19T07:53:48.228Z,2.50
2023-05-19T07:56:16.796Z,2.50
2023-05-19T07:58:45.613Z,2.40
2023-05-19T08:01:14.086Z,2.63
2023-05-19T08:03:42.630Z,2.43
2023-05-19T08:06:11.429Z,2.50
2023-05-19T08:08:39.962Z,2.80
2023-05-19T08:11:08.334Z,2.17
2023-05-19T08:13:36.840Z,2.70
2023-05-19T08:16:05.429Z,2.30
2023-05-19T08:18:34.012Z,2.63
2023-05-19T08:21:02.599Z,2.83
2023-05-19T08:23:31.066Z,2.50
2023-05-19T08:25:59.521Z,2.83
2023-05-19T08:28:39.166Z,2.80
2023-05-19T08:31:07.693Z,2.37
2023-05-19T08:33:36.191Z,2.43
2023-05-19T08:36:04.802Z,2.50
2023-05-19T08:38:33.319Z,2.90
2023-05-19T08:41:01.819Z,3.00
2023-05-19T08:43:30.389Z,2.50
2023-05-19T08:46:01.302Z,2.73
2023-05-19T08:48:32.438Z,2.90
2023-05-19T08:51:51.891Z,3.07
2023-05-19T08:54:22.468Z,3.07
2023-05-19T08:56:51.078Z,3.17
2023-05-19T08:59:21.635Z,3.30
2023-05-19T09:01:51.502Z,2.50
2023-05-19T09:04:20.319Z,2.30
2023-05-19T09:06:50.309Z,2.23
2023-05-19T09:09:18.792Z,2.40
2023-05-19T09:11:48.215Z,2.20
2023-05-19T09:14:16.649Z,1.97
2023-05-19T09:16:49.814Z,2.33
2023-05-19T09:19:18.585Z,2.80
2023-05-19T09:21:47.242Z,2.30
2023-05-19T09:24:15.764Z,2.77
2023-05-19T09:26:44.664Z,2.03
2023-05-19T09:29:17.906Z,2.20
2023-05-19T09:32:05.420Z,2.53
2023-05-19T09:34:36.094Z,2.43
2023-05-19T09:37:05.243Z,2.33
2023-05-19T09:39:33.767Z,2.10
2023-05-19T09:42:07.058Z,2.00
2023-05-19T09:44:36.754Z,2.43
2023-05-19T09:47:05.286Z,1.87
2023-05-19T09:49:33.978Z,2.03
2023-05-19T09:52:04.841Z,1.80
2023-05-19T09:54:34.860Z,1.93
2023-05-19T09:57:08.406Z,2.07
2023-05-19T09:59:38.953Z,1.97
2023-05-19T10:02:12.399Z,2.00
2023-05-19T10:04:41.330Z,2.23
2023-05-19T10:07:11.365Z,2.17
2023-05-19T10:09:40.001Z,2.17
2023-05-19T10:12:09.816Z,2.00
2023-05-19T10:14:38.763Z,1.80
2023-05-19T10:17:07.486Z,2.30
2023-05-19T10:19:36.492Z,1.53
2023-05-19T10:22:05.274Z,2.07
2023-05-19T10:28:41.154Z,1.90
2023-05-19T10:31:14.816Z,2.33
2023-05-19T10:34:25.871Z,1.90
2023-05-19T10:37:32.889Z,2.40
2023-05-19T10:40:01.730Z,2.00
2023-05-19T10:42:42.372Z,2.10
2023-05-19T10:45:23.838Z,2.30
2023-05-19T10:47:52.612Z,2.00
2023-05-19T10:50:21.951Z,2.27
2023-05-19T10:52:58.003Z,2.07
2023-05-19T10:55:59.053Z,1.90
2023-05-19T10:58:41.643Z,2.20
2023-05-19T11:01:16.605Z,2.20
2023-05-19T11:03:49.523Z,2.27
2023-05-19T11:06:29.677Z,1.90
2023-05-19T11:09:28.397Z,2.07
2023-05-19T11:12:05.058Z,2.40
2023-05-19T11:14:34.173Z,2.60
2023-05-19T11:17:02.884Z,2.30
2023-05-19T11:19:38.297Z,2.37
2023-05-19T11:22:14.902Z,2.17
2023-05-19T11:24:50.636Z,2.73
2023-05-19T11:27:40.245Z,2.80
2023-05-19T11:30:09.561Z,2.53
2023-05-19T11:32:39.346Z,2.23
2023-05-19T11:35:09.869Z,3.93
2023-05-19T11:37:40.446Z,2.70
2023-05-19T11:40:09.428Z,2.77
2023-05-19T11:42:38.450Z,2.60
2023-05-19T11:45:07.460Z,2.70
2023-05-19T11:47:45.905Z,2.60
2023-05-19T11:50:20.932Z,2.53
2023-05-19T11:52:49.395Z,2.20
2023-05-19T11:55:22.459Z,2.10
2023-05-19T11:58:03.960Z,2.80
2023-05-19T12:00:39.371Z,2.30
2023-05-19T12:03:09.113Z,2.80
2023-05-19T12:05:43.798Z,2.20
2023-05-19T12:08:13.407Z,2.47
2023-05-19T12:10:42.038Z,2.37
2023-05-19T12:13:11.117Z,2.30
2023-05-19T12:15:39.847Z,2.23
2023-05-19T12:18:08.683Z,2.43
2023-05-19T12:20:37.718Z,2.50
2023-05-19T12:23:07.656Z,2.53
2023-05-19T12:25:36.433Z,2.10
2023-05-19T12:28:05.486Z,2.77
2023-05-19T12:30:35.317Z,2.20
2023-05-19T12:33:04.627Z,2.20
2023-05-19T12:35:34.551Z,2.47
2023-05-19T12:38:06.731Z,2.27
2023-05-19T12:40:36.792Z,2.10
2023-05-19T12:43:05.637Z,2.17
2023-05-19T12:45:39.051Z,2.30
2023-05-19T12:48:12.908Z,2.00
2023-05-19T12:50:41.430Z,2.30
2023-05-19T12:53:11.976Z,2.30
2023-05-19T12:55:43.164Z,2.17
2023-05-19T12:58:13.175Z,4.40
2023-05-19T13:00:47.548Z,2.00
2023-05-19T13:03:22.058Z,2.40
2023-05-19T13:05:52.259Z,2.10
2023-05-19T13:08:24.058Z,2.23
2023-05-19T13:10:52.724Z,2.10
2023-05-19T13:13:22.085Z,2.03
2023-05-19T13:15:50.675Z,2.27
2023-05-19T13:18:19.789Z,2.27
2023-05-19T13:20:50.334Z,2.20
2023-05-19T13:23:19.390Z,2.20
2023-05-19T13:25:48.048Z,2.13
2023-05-19T13:28:16.576Z,2.07
2023-05-19T13:30:46.187Z,2.27
2023-05-19T13:33:15.214Z,1.83
2023-05-19T13:35:43.854Z,2.20
2023-05-19T13:38:12.495Z,2.10
2023-05-19T13:40:41.397Z,2.00
2023-05-19T13:43:10.249Z,2.17
2023-05-19T13:45:39.243Z,1.97
2023-05-19T13:48:08.618Z,2.30
2023-05-19T13:50:37.557Z,2.30
2023-05-19T13:53:06.078Z,1.97
2023-05-19T13:55:34.814Z,2.20
2023-05-19T13:58:03.560Z,2.13
2023-05-19T14:00:38.357Z,1.77
2023-05-19T14:03:12.532Z,2.13
2023-05-19T14:05:53.587Z,2.40
2023-05-19T14:08:27.553Z,2.20
2023-05-19T14:11:02.635Z,2.10
2023-05-19T14:13:40.931Z,2.00
2023-05-19T14:16:12.605Z,2.10
2023-05-19T14:18:45.506Z,2.00
2023-05-19T14:21:18.925Z,2.10
2023-05-19T14:23:57.868Z,2.40
2023-05-19T14:26:29.962Z,2.23
2023-05-19T14:29:10.735Z,2.27
2023-05-19T14:31:50.083Z,2.10
2023-05-19T14:34:21.346Z,2.07
2023-05-19T14:36:50.303Z,2.17
2023-05-19T14:39:30.659Z,2.33
2023-05-19T14:42:18.220Z,2.30
2023-05-19T14:44:50.284Z,2.33
2023-05-19T14:47:18.867Z,2.47
2023-05-19T14:49:47.792Z,2.60
2023-05-19T14:52:25.967Z,2.20
2023-05-19T14:54:56.188Z,2.17
2023-05-19T14:57:31.762Z,2.30
2023-05-19T15:00:00.359Z,2.20
2023-05-19T15:02:35.281Z,2.50
2023-05-19T15:05:26.202Z,2.30
2023-05-19T15:07:56.226Z,2.53
2023-05-19T15:10:33.760Z,2.17
2023-05-19T15:13:08.112Z,1.93
2023-05-19T15:15:40.231Z,2.10
2023-05-19T15:18:09.677Z,2.00
2023-05-19T15:20:38.979Z,2.30
2023-05-19T15:23:07.545Z,1.90
2023-05-19T15:25:36.058Z,2.47
2023-05-19T15:28:05.709Z,2.43
2023-05-19T15:30:34.661Z,2.20
2023-05-19T15:33:03.454Z,2.07
2023-05-19T15:35:32.145Z,2.20
2023-05-19T15:38:05.268Z,2.27
2023-05-19T15:40:34.818Z,2.23
2023-05-19T15:43:03.597Z,2.20
2023-05-19T15:45:32.076Z,2.27
2023-05-19T15:48:03.896Z,2.17
2023-05-19T15:50:33.176Z,2.17
2023-05-19T15:53:01.841Z,2.00
2023-05-19T15:55:30.720Z,2.33
2023-05-19T15:57:59.141Z,2.10
2023-05-19T16:00:27.606Z,2.07
2023-05-19T16:02:56.173Z,2.07
2023-05-19T16:05:24.962Z,2.13
2023-05-19T16:07:53.406Z,2.40
2023-05-19T16:10:22.003Z,2.10
2023-05-19T16:12:50.634Z,2.10
2023-05-19T16:15:19.344Z,2.20
2023-05-19T16:17:47.833Z,2.40
2023-05-19T16:20:17.014Z,2.23
2023-05-19T16:22:45.546Z,2.37
2023-05-19T16:25:14.091Z,2.13
2023-05-19T16:27:42.585Z,2.60
2023-05-19T16:30:11.806Z,2.67
2023-05-19T16:32:40.696Z,2.10
2023-05-19T16:35:09.934Z,2.53
2023-05-19T16:37:38.572Z,2.60
2023-05-19T16:40:07.781Z,1.93
2023-05-19T16:42:36.289Z,2.20
2023-05-19T16:45:08.911Z,2.30
2023-05-19T16:47:37.355Z,2.23
2023-05-19T16:50:06.594Z,2.80
2023-05-19T16:52:35.150Z,2.07
2023-05-19T16:55:03.729Z,2.30
2023-05-19T16:57:32.229Z,2.77
2023-05-19T17:00:00.804Z,2.20
2023-05-19T17:02:30.616Z,1.70
2023-05-19T17:04:59.623Z,2.57
2023-05-19T17:07:29.214Z,2.17
2023-05-19T17:09:57.597Z,2.27
2023-05-19T17:12:26.122Z,2.30
2023-05-19T17:14:54.774Z,2.30
2023-05-19T17:17:23.394Z,2.43
2023-05-19T17:19:52.251Z,2.40
2023-05-19T17:22:20.838Z,2.53
2023-05-19T17:24:49.334Z,1.97
2023-05-19T17:27:17.822Z,2.30
2023-05-19T17:29:52.158Z,2.27
2023-05-19T17:32:25.492Z,2.47
2023-05-19T17:34:54.489Z,2.73
2023-05-19T17:37:25.717Z,2.70
2023-05-19T17:39:54.502Z,2.67
2023-05-19T17:42:23.421Z,2.77
2023-05-19T17:44:52.133Z,2.47
2023-05-19T17:47:20.685Z,2.73
2023-05-19T17:49:50.343Z,2.77
2023-05-19T17:52:19.317Z,2.67
2023-05-19T17:54:47.988Z,2.33
2023-05-19T17:57:18.210Z,2.60
2023-05-19T17:59:47.087Z,2.70
2023-05-19T18:02:15.939Z,2.83
2023-05-19T18:04:44.809Z,3.00
2023-05-19T18:07:13.628Z,3.20
2023-05-19T18:09:46.791Z,3.73
2023-05-19T18:12:15.396Z,2.90
2023-05-19T18:14:43.994Z,3.53
2023-05-19T18:17:12.716Z,2.97
2023-05-19T18:19:41.189Z,2.73
2023-05-19T18:22:12.882Z,3.27
2023-05-19T18:24:41.484Z,2.90
2023-05-19T18:27:09.998Z,2.83
2023-05-19T18:29:39.381Z,2.57
2023-05-19T18:32:08.448Z,3.07
2023-05-19T18:34:37.043Z,3.20
2023-05-19T18:37:05.753Z,3.33
2023-05-19T18:39:34.314Z,3.13
2023-05-19T18:42:02.976Z,3.13
2023-05-19T18:44:31.722Z,3.07
2023-05-19T18:47:00.266Z,2.83
2023-05-19T18:49:28.735Z,2.87
2023-05-19T18:51:57.237Z,3.23
2023-05-19T18:54:25.839Z,3.30
2023-05-19T18:56:55.153Z,3.13
2023-05-19T18:59:24.565Z,2.97
2023-05-19T19:01:55.366Z,5.27
2023-05-19T19:04:24.379Z,3.33
2023-05-19T19:06:53.537Z,3.80
2023-05-19T19:09:21.843Z,3.43
2023-05-19T19:11:50.241Z,2.87
2023-05-19T19:14:19.454Z,3.30
2023-05-19T19:16:48.272Z,3.03
2023-05-19T19:19:17.201Z,3.30
2023-05-19T19:21:46.248Z,2.93
2023-05-19T19:24:15.045Z,3.17
2023-05-19T19:26:43.559Z,3.40
2023-05-19T19:29:12.302Z,3.43
2023-05-19T19:31:40.854Z,3.43
2023-05-19T19:34:09.594Z,3.53
2023-05-19T19:36:38.245Z,3.40
2023-05-19T19:39:06.787Z,3.30
2023-05-19T19:41:35.001Z,3.17
2023-05-19T19:44:03.538Z,3.80
2023-05-19T19:46:32.247Z,3.13
2023-05-19T19:49:02.325Z,3.47
2023-05-19T19:51:31.662Z,3.50
2023-05-19T19:54:00.542Z,3.63
2023-05-19T19:56:29.163Z,4.00
2023-05-19T19:58:59.341Z,3.60
2023-05-19T20:01:28.366Z,3.30
2023-05-19T20:03:57.638Z,3.47
2023-05-19T20:06:26.642Z,3.50
2023-05-19T20:08:55.192Z,3.27
2023-05-19T20:11:24.583Z,3.77
2023-05-19T20:13:53.829Z,4.10
2023-05-19T20:16:22.428Z,4.07
2023-05-19T20:18:51.694Z,3.67
2023-05-19T20:21:20.504Z,3.90
2023-05-19T20:23:50.442Z,4.07
2023-05-19T20:26:18.956Z,3.10
2023-05-19T20:28:47.932Z,3.40
2023-05-19T20:31:16.565Z,3.47
2023-05-19T20:33:45.223Z,3.53
2023-05-19T20:36:13.857Z,4.00
2023-05-19T20:38:42.502Z,3.33
2023-05-19T20:41:11.437Z,13.03
2023-05-19T20:43:40.118Z,6.80
2023-05-19T20:46:08.832Z,4.00
2023-05-19T20:48:37.646Z,3.83
2023-05-19T20:51:06.417Z,3.60
2023-05-19T20:53:35.236Z,3.60
2023-05-19T20:56:05.293Z,3.93
2023-05-19T20:58:34.351Z,4.03
2023-05-19T21:01:03.304Z,3.93
2023-05-19T21:03:32.229Z,3.80
2023-05-19T21:06:01.277Z,3.33
2023-05-19T21:08:29.889Z,3.63
2023-05-19T21:10:58.127Z,3.67
2023-05-19T21:13:26.781Z,3.60
2023-05-19T21:15:57.115Z,3.63
2023-05-19T21:18:25.393Z,3.53
2023-05-19T21:20:53.959Z,3.90
2023-05-19T21:23:22.723Z,3.30
2023-05-19T21:25:52.121Z,4.17
2023-05-19T21:28:20.425Z,4.30
2023-05-19T21:30:50.066Z,3.90
2023-05-19T21:33:18.854Z,4.27
2023-05-19T21:35:47.534Z,4.20
2023-05-19T21:40:51.160Z,4.60
2023-05-19T21:43:21.890Z,4.50
2023-05-19T21:45:50.554Z,4.60
2023-05-19T21:48:19.327Z,5.00
2023-05-19T21:50:47.531Z,4.63
2023-05-19T21:53:15.876Z,4.83
2023-05-19T21:55:44.635Z,5.10
2023-05-19T21:58:13.397Z,4.80
2023-05-19T22:00:42.084Z,4.83
2023-05-19T22:03:10.285Z,5.43
2023-05-19T22:05:38.768Z,5.13
2023-05-19T22:08:07.427Z,4.57
2023-05-19T22:10:37.350Z,4.87
2023-05-19T22:13:06.012Z,4.90
2023-05-19T22:15:34.152Z,4.93
2023-05-19T22:18:02.361Z,5.40
2023-05-19T22:20:31.024Z,5.50
2023-05-19T22:23:01.234Z,6.03
2023-05-19T22:25:29.573Z,5.30
2023-05-19T22:27:59.049Z,5.40
2023-05-19T22:30:27.602Z,5.97
2023-05-19T22:32:56.523Z,5.77
2023-05-19T22:35:24.936Z,10.10
2023-05-19T22:37:53.110Z,11.97
2023-05-19T22:40:21.937Z,6.17
2023-05-19T22:42:50.769Z,6.00
2023-05-19T22:45:19.605Z,6.20
2023-05-19T22:47:48.506Z,5.40
2023-05-19T22:50:17.499Z,5.80
2023-05-19T22:52:46.106Z,6.03
2023-05-19T22:55:14.424Z,5.93
2023-05-19T22:57:42.596Z,6.20
2023-05-19T23:00:14.189Z,5.57
2023-05-19T23:02:43.438Z,5.90
2023-05-19T23:05:12.356Z,5.60
2023-05-19T23:07:40.909Z,5.80
2023-05-19T23:10:09.753Z,6.00
2023-05-19T23:12:38.401Z,5.60
2023-05-19T23:15:08.568Z,6.47
2023-05-19T23:17:37.385Z,5.67
2023-05-19T23:20:06.397Z,5.80
2023-05-19T23:22:34.709Z,5.83
2023-05-19T23:25:07.916Z,5.87
2023-05-19T23:27:37.414Z,5.13
2023-05-19T23:30:06.651Z,5.57
2023-05-19T23:32:35.247Z,5.63
2023-05-19T23:35:18.351Z,6.13
2023-05-19T23:37:46.901Z,5.60
2023-05-19T23:40:16.336Z,5.70
2023-05-19T23:42:44.899Z,5.77
2023-05-19T23:45:13.790Z,5.27
2023-05-19T23:47:42.516Z,5.30
2023-05-19T23:50:11.527Z,5.13
2023-05-19T23:52:40.298Z,5.10
2023-05-19T23:55:09.944Z,5.40
2023-05-19T23:57:38.442Z,5.53
